createdAt,value
2019-06-08T00:00:44.668Z,21.10
2019-06-08T00:03:16.593Z,21.10
2019-06-08T00:05:47.057Z,21.10
2019-06-08T00:08:19.062Z,21.10
2019-06-08T00:10:49.793Z,21.00
2019-06-08T00:13:21.306Z,21.00
2019-06-08T00:15:51.686Z,21.00
2019-06-08T00:18:23.404Z,21.00
2019-06-08T00:20:54.405Z,20.90
2019-06-08T00:23:24.768Z,20.80
2019-06-08T00:25:56.354Z,20.80
2019-06-08T00:28:26.793Z,20.70
2019-06-08T00:30:57.215Z,20.70
2019-06-08T00:33:27.568Z,20.70
2019-06-08T00:35:57.972Z,20.60
2019-06-08T00:38:28.474Z,20.60
2019-06-08T00:40:59.582Z,20.70
2019-06-08T00:43:30.030Z,20.60
2019-06-08T00:46:00.702Z,20.60
2019-06-08T00:48:31.120Z,20.60
2019-06-08T00:51:01.478Z,20.50
2019-06-08T00:53:31.867Z,20.40
2019-06-08T00:56:02.278Z,20.40
2019-06-08T00:58:33.677Z,20.30
2019-06-08T01:01:04.165Z,20.30
2019-06-08T01:03:34.557Z,20.20
2019-06-08T01:06:05.124Z,20.20
2019-06-08T01:08:35.634Z,20.20
2019-06-08T01:11:06.271Z,20.20
2019-06-08T01:13:36.915Z,20.20
2019-06-08T01:16:07.294Z,20.20
2019-06-08T01:18:37.696Z,20.10
2019-06-08T01:21:08.176Z,20.10
2019-06-08T01:23:38.524Z,20.10
2019-06-08T01:26:08.933Z,20.10
2019-06-08T01:28:39.260Z,20.10
2019-06-08T01:31:09.934Z,20.10
2019-06-08T01:33:40.386Z,20.00
2019-06-08T01:36:10.770Z,20.00
2019-06-08T01:38:41.484Z,20.00
2019-06-08T01:41:11.912Z,20.10
2019-06-08T01:43:42.342Z,20.10
2019-06-08T01:46:12.830Z,20.00
2019-06-08T01:48:43.163Z,20.00
2019-06-08T01:51:13.666Z,20.00
2019-06-08T01:53:44.106Z,20.00
2019-06-08T01:56:14.593Z,20.00
2019-06-08T01:58:44.963Z,19.90
2019-06-08T02:01:15.431Z,19.90
2019-06-08T02:03:45.848Z,19.90
2019-06-08T02:06:16.261Z,19.90
2019-06-08T02:08:46.660Z,19.90
2019-06-08T02:11:17.137Z,19.90
2019-06-08T02:13:47.688Z,19.80
2019-06-08T02:16:18.480Z,19.80
2019-06-08T02:18:51.037Z,19.90
2019-06-08T02:21:20.910Z,19.80
2019-06-08T02:23:51.382Z,19.80
2019-06-08T02:26:22.275Z,19.70
2019-06-08T02:28:52.670Z,19.80
2019-06-08T02:31:23.139Z,19.80
2019-06-08T02:33:55.257Z,19.80
2019-06-08T02:36:25.694Z,19.70
2019-06-08T02:38:56.074Z,19.80
2019-06-08T02:41:26.536Z,19.80
2019-06-08T02:43:56.900Z,19.80
2019-06-08T02:46:29.063Z,19.80
2019-06-08T02:49:04.158Z,19.80
2019-06-08T02:51:34.299Z,19.90
2019-06-08T02:54:04.052Z,19.90
2019-06-08T02:56:36.729Z,20.00
2019-06-08T02:59:08.060Z,20.20
2019-06-08T03:01:40.774Z,20.30
2019-06-08T03:04:13.085Z,20.50
2019-06-08T03:06:46.393Z,20.60
2019-06-08T03:09:19.138Z,20.70
2019-06-08T03:11:50.552Z,20.90
2019-06-08T03:14:25.267Z,21.10
2019-06-08T03:16:55.938Z,21.30
2019-06-08T03:19:26.628Z,21.40
2019-06-08T03:21:57.058Z,21.50
2019-06-08T03:24:27.518Z,21.60
2019-06-08T03:26:58.025Z,21.80
2019-06-08T03:29:28.596Z,21.80
2019-06-08T03:31:59.041Z,21.60
2019-06-08T03:34:29.452Z,21.60
2019-06-08T03:36:59.847Z,21.70
2019-06-08T03:39:30.245Z,21.80
2019-06-08T03:42:00.920Z,22.00
2019-06-08T03:44:31.291Z,22.10
2019-06-08T03:47:01.712Z,22.10
2019-06-08T03:49:44.866Z,22.20
2019-06-08T03:52:04.174Z,22.30
2019-06-08T03:54:36.075Z,22.40
2019-06-08T03:57:06.622Z,22.60
2019-06-08T03:59:38.495Z,22.80
2019-06-08T04:02:09.205Z,23.00
2019-06-08T04:04:40.274Z,23.20
2019-06-08T04:07:11.885Z,23.40
2019-06-08T04:09:43.487Z,23.70
2019-06-08T04:12:15.797Z,24.00
2019-06-08T04:14:46.655Z,24.10
2019-06-08T04:17:17.180Z,24.30
2019-06-08T04:20:06.343Z,24.30
2019-06-08T04:22:19.853Z,24.40
2019-06-08T04:24:50.651Z,24.40
2019-06-08T04:27:21.339Z,24.70
2019-06-08T04:29:51.839Z,24.90
2019-06-08T04:32:22.289Z,25.10
2019-06-08T04:34:52.942Z,25.40
2019-06-08T04:37:23.299Z,25.80
2019-06-08T04:39:53.680Z,26.10
2019-06-08T04:42:24.060Z,26.40
2019-06-08T04:44:54.461Z,26.60
2019-06-08T04:47:24.836Z,27.00
2019-06-08T04:49:55.177Z,27.20
2019-06-08T04:52:25.787Z,27.50
2019-06-08T04:54:56.168Z,27.60
2019-06-08T04:57:26.565Z,27.60
2019-06-08T04:59:56.921Z,27.70
2019-06-08T05:02:27.338Z,27.80
2019-06-08T05:04:57.766Z,27.80
2019-06-08T05:07:28.434Z,28.00
2019-06-08T05:09:58.874Z,28.20
2019-06-08T05:12:29.247Z,28.40
2019-06-08T05:14:59.625Z,28.10
2019-06-08T05:17:30.070Z,28.10
2019-06-08T05:20:00.484Z,28.10
2019-06-08T05:22:31.190Z,27.80
2019-06-08T05:25:01.602Z,27.90
2019-06-08T05:27:32.050Z,27.90
2019-06-08T05:30:08.319Z,27.80
2019-06-08T05:32:36.449Z,28.00
2019-06-08T05:35:06.973Z,28.30
2019-06-08T05:37:37.338Z,28.80
2019-06-08T05:40:08.246Z,29.20
2019-06-08T05:42:40.609Z,29.50
2019-06-08T05:45:11.207Z,29.60
2019-06-08T05:47:41.837Z,29.90
2019-06-08T05:50:12.887Z,29.80
2019-06-08T05:52:44.169Z,30.10
2019-06-08T05:55:15.173Z,30.30
2019-06-08T05:57:46.536Z,30.60
2019-06-08T06:00:17.431Z,30.50
2019-06-08T06:02:48.911Z,30.70
2019-06-08T06:05:20.045Z,31.00
2019-06-08T06:07:51.221Z,31.00
2019-06-08T06:10:21.893Z,31.10
2019-06-08T06:12:52.284Z,31.20
2019-06-08T06:15:22.752Z,31.20
2019-06-08T06:17:53.103Z,31.00
2019-06-08T06:20:23.891Z,31.20
2019-06-08T06:22:54.343Z,30.90
2019-06-08T06:25:25.002Z,30.70
2019-06-08T06:27:55.433Z,30.90
2019-06-08T06:30:25.819Z,30.70
2019-06-08T06:32:56.186Z,30.60
2019-06-08T06:35:26.593Z,30.30
2019-06-08T06:37:56.971Z,30.10
2019-06-08T06:40:27.449Z,30.10
2019-06-08T06:42:57.907Z,29.80
2019-06-08T06:45:28.319Z,30.00
2019-06-08T06:47:58.725Z,29.90
2019-06-08T06:50:29.263Z,29.80
2019-06-08T06:52:59.649Z,30.20
2019-06-08T06:55:30.128Z,30.10
2019-06-08T06:58:00.659Z,30.40
2019-06-08T07:00:32.594Z,30.80
2019-06-08T07:03:03.364Z,30.80
2019-06-08T07:05:34.063Z,31.10
2019-06-08T07:08:04.473Z,31.10
2019-06-08T07:10:34.838Z,31.40
2019-06-08T07:13:05.173Z,31.60
2019-06-08T07:15:41.558Z,31.90
2019-06-08T07:18:07.689Z,32.10
2019-06-08T07:20:38.181Z,32.30
2019-06-08T07:23:08.600Z,32.30
2019-06-08T07:25:39.018Z,32.30
2019-06-08T07:28:09.539Z,31.70
2019-06-08T07:30:39.971Z,31.40
2019-06-08T07:33:10.400Z,31.20
2019-06-08T07:35:40.817Z,31.20
2019-06-08T07:38:11.239Z,31.60
2019-06-08T07:40:41.563Z,31.30
2019-06-08T07:43:11.901Z,31.50
2019-06-08T07:45:43.205Z,31.80
2019-06-08T07:48:13.601Z,32.10
2019-06-08T07:50:44.309Z,32.30
2019-06-08T07:53:15.197Z,32.10
2019-06-08T07:55:45.665Z,32.20
2019-06-08T07:58:16.130Z,32.50
2019-06-08T08:00:46.488Z,31.40
2019-06-08T08:03:16.839Z,31.10
2019-06-08T08:05:48.173Z,31.20
2019-06-08T08:08:18.839Z,30.70
2019-06-08T08:10:50.292Z,30.60
2019-06-08T08:13:20.885Z,30.50
2019-06-08T08:15:53.734Z,29.90
2019-06-08T08:18:23.512Z,30.10
2019-06-08T08:20:55.137Z,30.80
2019-06-08T08:23:27.449Z,31.30
2019-06-08T08:26:01.528Z,31.80
2019-06-08T08:28:30.278Z,32.20
2019-06-08T08:31:01.872Z,32.20
2019-06-08T08:33:32.454Z,31.90
2019-06-08T08:36:02.856Z,32.00
2019-06-08T08:38:34.652Z,32.20
2019-06-08T08:41:10.064Z,32.60
2019-06-08T08:43:37.688Z,33.00
2019-06-08T08:46:08.417Z,33.00
2019-06-08T08:48:38.816Z,33.20
2019-06-08T08:51:09.171Z,33.30
2019-06-08T08:53:39.564Z,33.40
2019-06-08T08:56:11.054Z,32.80
2019-06-08T08:58:41.514Z,32.20
2019-06-08T09:01:11.902Z,31.90
2019-06-08T09:03:42.293Z,32.10
2019-06-08T09:06:12.721Z,32.70
2019-06-08T09:08:44.143Z,33.40
2019-06-08T09:11:14.513Z,33.90
2019-06-08T09:13:44.971Z,34.30
2019-06-08T09:16:17.516Z,34.50
2019-06-08T09:18:48.022Z,34.30
2019-06-08T09:21:18.852Z,34.00
2019-06-08T09:23:49.505Z,34.10
2019-06-08T09:26:20.151Z,34.30
2019-06-08T09:28:51.679Z,34.80
2019-06-08T09:31:22.565Z,35.00
2019-06-08T09:33:58.224Z,35.10
2019-06-08T09:36:25.014Z,35.00
2019-06-08T09:39:00.633Z,34.80
2019-06-08T09:41:30.740Z,34.50
2019-06-08T09:44:02.202Z,34.60
2019-06-08T09:46:31.515Z,34.40
2019-06-08T09:49:07.580Z,34.70
2019-06-08T09:51:33.806Z,34.70
2019-06-08T09:54:06.215Z,34.50
2019-06-08T09:56:37.954Z,34.80
2019-06-08T09:59:11.063Z,35.30
2019-06-08T10:01:41.291Z,35.70
2019-06-08T10:04:11.577Z,36.00
2019-06-08T10:06:43.001Z,36.30
2019-06-08T10:09:13.785Z,36.60
2019-06-08T10:11:44.187Z,36.60
2019-06-08T10:14:14.522Z,35.80
2019-06-08T10:16:47.654Z,34.70
2019-06-08T10:19:18.713Z,33.70
2019-06-08T10:21:48.862Z,32.90
2019-06-08T10:24:19.323Z,32.30
2019-06-08T10:26:49.638Z,31.80
2019-06-08T10:29:20.181Z,31.50
2019-06-08T10:31:50.733Z,31.60
2019-06-08T10:34:20.977Z,32.40
2019-06-08T10:36:51.897Z,32.80
2019-06-08T10:39:22.282Z,32.40
2019-06-08T10:41:52.663Z,31.90
2019-06-08T10:44:23.033Z,31.40
2019-06-08T10:46:53.367Z,30.90
2019-06-08T10:49:23.718Z,30.40
2019-06-08T10:51:54.089Z,30.10
2019-06-08T10:54:24.517Z,29.90
2019-06-08T10:56:54.895Z,29.60
2019-06-08T10:59:25.268Z,29.20
2019-06-08T11:01:55.744Z,28.90
2019-06-08T11:04:28.510Z,28.80
2019-06-08T11:07:03.387Z,28.60
2019-06-08T11:09:30.398Z,28.60
2019-06-08T11:12:01.956Z,28.60
2019-06-08T11:14:32.713Z,28.50
2019-06-08T11:17:04.895Z,28.50
2019-06-08T11:19:37.675Z,28.50
2019-06-08T11:22:13.929Z,28.50
2019-06-08T11:24:40.258Z,28.40
2019-06-08T11:27:12.916Z,28.40
2019-06-08T11:29:42.625Z,28.00
2019-06-08T11:32:13.025Z,27.80
2019-06-08T11:34:43.709Z,27.00
2019-06-08T11:37:18.556Z,26.50
2019-06-08T11:39:46.102Z,26.00
2019-06-08T11:42:18.939Z,25.80
2019-06-08T11:44:51.071Z,25.50
2019-06-08T11:47:20.433Z,25.30
2019-06-08T11:49:50.761Z,25.30
2019-06-08T11:52:21.197Z,25.30
2019-06-08T11:54:51.570Z,25.30
2019-06-08T11:57:23.729Z,25.30
2019-06-08T11:59:54.161Z,25.20
2019-06-08T12:02:24.549Z,25.30
2019-06-08T12:04:57.155Z,25.30
2019-06-08T12:07:28.252Z,25.10
2019-06-08T12:09:58.907Z,25.10
2019-06-08T12:12:29.256Z,25.10
2019-06-08T12:14:59.580Z,25.30
2019-06-08T12:17:29.922Z,25.60
2019-06-08T12:20:00.284Z,25.80
2019-06-08T12:22:30.656Z,25.80
2019-06-08T12:25:01.083Z,25.80
2019-06-08T12:27:36.277Z,26.20
2019-06-08T12:30:09.005Z,26.80
2019-06-08T12:32:35.468Z,27.70
2019-06-08T12:35:09.042Z,28.20
2019-06-08T12:37:38.713Z,29.10
2019-06-08T12:40:11.700Z,29.60
2019-06-08T12:42:41.154Z,29.60
2019-06-08T12:45:13.402Z,29.60
2019-06-08T12:47:43.911Z,29.70
2019-06-08T12:50:15.462Z,29.80
2019-06-08T12:52:47.806Z,30.10
2019-06-08T12:55:24.494Z,30.20
2019-06-08T12:57:51.813Z,29.90
2019-06-08T13:00:22.903Z,30.20
2019-06-08T13:02:53.285Z,30.00
2019-06-08T13:05:23.634Z,29.40
2019-06-08T13:07:54.026Z,29.00
2019-06-08T13:10:24.469Z,28.80
2019-06-08T13:12:58.162Z,28.50
2019-06-08T13:15:30.903Z,28.50
2019-06-08T13:18:00.160Z,28.50
2019-06-08T13:20:30.466Z,28.60
2019-06-08T13:23:00.784Z,28.50
2019-06-08T13:25:40.072Z,28.50
2019-06-08T13:28:03.172Z,28.50
2019-06-08T13:30:33.926Z,28.40
2019-06-08T13:33:04.256Z,28.40
2019-06-08T13:35:34.709Z,28.50
2019-06-08T13:38:05.095Z,28.50
2019-06-08T13:40:39.923Z,28.40
2019-06-08T13:43:08.190Z,28.30
2019-06-08T13:45:39.495Z,28.20
2019-06-08T13:48:10.170Z,28.20
2019-06-08T13:50:40.577Z,28.20
2019-06-08T13:53:11.040Z,28.20
2019-06-08T13:55:54.351Z,28.10
2019-06-08T13:58:15.187Z,28.00
2019-06-08T14:00:47.668Z,28.00
2019-06-08T14:03:18.658Z,27.70
2019-06-08T14:05:49.936Z,27.60
2019-06-08T14:08:22.407Z,27.50
2019-06-08T14:10:52.344Z,27.40
2019-06-08T14:13:27.837Z,27.30
2019-06-08T14:15:55.301Z,27.20
2019-06-08T14:18:29.991Z,26.90
2019-06-08T14:20:58.838Z,26.40
2019-06-08T14:23:29.546Z,25.90
2019-06-08T14:26:01.974Z,25.40
2019-06-08T14:28:32.372Z,25.00
2019-06-08T14:31:02.772Z,24.60
2019-06-08T14:33:33.804Z,24.40
2019-06-08T14:36:04.412Z,24.10
2019-06-08T14:38:39.214Z,23.90
2019-06-08T14:41:07.990Z,23.80
2019-06-08T14:43:38.361Z,23.60
2019-06-08T14:46:10.021Z,23.40
2019-06-08T14:48:40.454Z,23.30
2019-06-08T14:51:10.814Z,23.20
2019-06-08T14:53:41.260Z,23.20
2019-06-08T14:56:11.656Z,23.10
2019-06-08T14:58:43.025Z,23.20
2019-06-08T15:01:14.815Z,23.20
2019-06-08T15:03:45.154Z,23.30
2019-06-08T15:06:17.666Z,23.40
2019-06-08T15:08:50.073Z,23.50
2019-06-08T15:11:19.670Z,23.60
2019-06-08T15:13:50.152Z,23.80
2019-06-08T15:16:21.523Z,23.90
2019-06-08T15:18:52.195Z,23.90
2019-06-08T15:21:24.143Z,24.00
2019-06-08T15:23:54.644Z,24.00
2019-06-08T15:26:32.773Z,24.00
2019-06-08T15:28:58.734Z,24.10
2019-06-08T15:31:31.039Z,24.10
2019-06-08T15:34:01.535Z,24.10
2019-06-08T15:36:32.601Z,24.10
2019-06-08T15:39:03.598Z,24.10
2019-06-08T15:41:35.150Z,24.00
2019-06-08T15:44:05.475Z,23.90
2019-06-08T15:46:37.937Z,23.90
2019-06-08T15:49:08.524Z,23.90
2019-06-08T15:51:40.757Z,24.00
2019-06-08T15:54:11.398Z,24.10
2019-06-08T15:56:51.216Z,24.30
2019-06-08T15:59:13.770Z,24.50
2019-06-08T16:01:44.131Z,24.70
2019-06-08T16:04:14.733Z,24.90
2019-06-08T16:06:45.327Z,25.00
2019-06-08T16:09:15.710Z,25.10
2019-06-08T16:11:46.064Z,25.30
2019-06-08T16:14:16.492Z,25.30
2019-06-08T16:16:46.900Z,25.40
2019-06-08T16:19:17.256Z,25.50
2019-06-08T16:21:47.776Z,25.60
2019-06-08T16:24:18.208Z,25.60
2019-06-08T16:26:53.112Z,25.60
2019-06-08T16:29:20.652Z,25.50
2019-06-08T16:31:51.084Z,25.40
2019-06-08T16:34:21.470Z,25.30
2019-06-08T16:36:51.779Z,25.30
2019-06-08T16:39:22.110Z,25.20
2019-06-08T16:41:52.550Z,25.20
2019-06-08T16:44:23.160Z,25.20
2019-06-08T16:46:53.534Z,25.20
2019-06-08T16:49:25.384Z,25.20
2019-06-08T16:51:55.762Z,25.30
2019-06-08T16:54:26.216Z,25.30
2019-06-08T16:57:09.331Z,25.40
2019-06-08T16:59:28.752Z,25.40
2019-06-08T17:01:59.459Z,25.30
2019-06-08T17:04:31.083Z,25.40
2019-06-08T17:07:03.150Z,25.30
2019-06-08T17:09:34.280Z,25.30
2019-06-08T17:12:05.092Z,25.30
2019-06-08T17:14:36.323Z,25.20
2019-06-08T17:17:07.052Z,25.10
2019-06-08T17:19:38.419Z,25.00
2019-06-08T17:22:09.081Z,24.90
2019-06-08T17:24:40.722Z,24.80
2019-06-08T17:27:25.849Z,24.70
2019-06-08T17:29:43.562Z,24.50
2019-06-08T17:32:13.936Z,24.40
2019-06-08T17:34:44.354Z,24.30
2019-06-08T17:37:14.892Z,24.10
2019-06-08T17:39:45.463Z,24.10
2019-06-08T17:42:16.081Z,24.00
2019-06-08T17:44:46.471Z,23.90
2019-06-08T17:47:16.843Z,23.80
2019-06-08T17:49:47.288Z,23.70
2019-06-08T17:52:17.672Z,23.70
2019-06-08T17:54:48.071Z,23.60
2019-06-08T17:57:18.505Z,23.60
2019-06-08T17:59:48.909Z,23.50
2019-06-08T18:02:27.425Z,23.40
2019-06-08T18:04:51.251Z,23.30
2019-06-08T18:07:21.652Z,23.30
2019-06-08T18:09:52.125Z,23.20
2019-06-08T18:12:22.528Z,23.20
2019-06-08T18:14:53.117Z,23.10
2019-06-08T18:17:23.452Z,23.10
2019-06-08T18:19:54.239Z,23.00
2019-06-08T18:22:27.019Z,22.90
2019-06-08T18:24:58.203Z,22.80
2019-06-08T18:27:28.856Z,22.80
2019-06-08T18:29:59.336Z,22.70
2019-06-08T18:32:29.694Z,22.60
2019-06-08T18:35:00.047Z,22.60
2019-06-08T18:37:30.452Z,22.50
2019-06-08T18:40:00.822Z,22.50
2019-06-08T18:42:31.453Z,22.40
2019-06-08T18:45:02.371Z,22.30
2019-06-08T18:47:32.831Z,22.30
2019-06-08T18:50:03.319Z,22.20
2019-06-08T18:52:33.721Z,22.10
2019-06-08T18:55:04.856Z,22.10
2019-06-08T18:57:35.485Z,22.00
2019-06-08T19:00:09.188Z,22.00
2019-06-08T19:02:41.977Z,21.90
2019-06-08T19:05:12.012Z,21.80
2019-06-08T19:07:43.510Z,21.80
2019-06-08T19:10:18.531Z,21.70
2019-06-08T19:12:50.662Z,21.70
2019-06-08T19:15:24.537Z,21.60
2019-06-08T19:17:57.230Z,21.60
2019-06-08T19:20:28.444Z,21.50
2019-06-08T19:22:58.887Z,21.50
2019-06-08T19:25:30.527Z,21.50
2019-06-08T19:28:01.108Z,21.50
2019-06-08T19:30:31.731Z,21.40
2019-06-08T19:33:02.120Z,21.50
2019-06-08T19:35:34.716Z,21.40
2019-06-08T19:38:04.461Z,21.40
2019-06-08T19:40:34.810Z,21.40
2019-06-08T19:43:07.386Z,21.40
2019-06-08T19:45:39.161Z,21.50
2019-06-08T19:48:09.239Z,21.50
2019-06-08T19:50:41.272Z,21.40
2019-06-08T19:53:11.715Z,21.40
2019-06-08T19:55:43.152Z,21.40
2019-06-08T19:58:13.912Z,21.40
2019-06-08T20:00:44.309Z,21.40
2019-06-08T20:03:17.705Z,21.40
2019-06-08T20:05:51.616Z,21.40
2019-06-08T20:08:19.891Z,21.30
2019-06-08T20:10:50.812Z,21.30
2019-06-08T20:13:21.451Z,21.20
2019-06-08T20:15:57.396Z,21.20
2019-06-08T20:18:23.731Z,21.20
2019-06-08T20:20:54.566Z,21.20
2019-06-08T20:23:27.465Z,21.10
2019-06-08T20:26:00.488Z,21.00
2019-06-08T20:28:29.681Z,21.00
2019-06-08T20:31:00.999Z,20.90
2019-06-08T20:33:31.396Z,20.90
2019-06-08T20:36:01.913Z,20.80
2019-06-08T20:38:38.491Z,20.80
2019-06-08T20:41:04.425Z,20.70
2019-06-08T20:43:34.748Z,20.60
2019-06-08T20:46:05.114Z,20.60
2019-06-08T20:48:37.639Z,20.50
2019-06-08T20:51:07.989Z,20.40
2019-06-08T20:53:38.890Z,20.40
2019-06-08T20:56:09.387Z,20.30
2019-06-08T20:58:39.693Z,20.30
2019-06-08T21:01:10.057Z,20.20
2019-06-08T21:03:40.449Z,20.10
2019-06-08T21:06:10.744Z,20.10
2019-06-08T21:08:41.369Z,19.90
2019-06-08T21:11:11.736Z,19.90
2019-06-08T21:13:42.188Z,19.80
2019-06-08T21:16:12.619Z,19.80
2019-06-08T21:18:42.971Z,19.70
2019-06-08T21:21:13.451Z,19.60
2019-06-08T21:23:44.850Z,19.60
2019-06-08T21:26:17.897Z,19.50
2019-06-08T21:28:52.302Z,19.40
2019-06-08T21:31:21.132Z,19.30
2019-06-08T21:33:52.621Z,19.30
2019-06-08T21:36:23.507Z,19.30
2019-06-08T21:38:56.675Z,19.20
2019-06-08T21:41:27.915Z,19.20
2019-06-08T21:44:01.893Z,19.10
2019-06-08T21:46:29.971Z,19.10
2019-06-08T21:49:00.625Z,19.10
2019-06-08T21:51:31.035Z,19.10
2019-06-08T21:54:01.329Z,19.00
2019-06-08T21:56:31.757Z,19.00
2019-06-08T21:59:02.196Z,19.00
2019-06-08T22:01:33.943Z,19.00
2019-06-08T22:04:04.806Z,18.90
2019-06-08T22:06:37.289Z,18.80
2019-06-08T22:09:09.792Z,18.80
2019-06-08T22:11:40.335Z,18.70
2019-06-08T22:14:10.689Z,18.70
2019-06-08T22:16:41.068Z,18.70
2019-06-08T22:19:11.331Z,18.60
2019-06-08T22:21:41.889Z,18.70
2019-06-08T22:24:12.179Z,18.60
2019-06-08T22:26:42.773Z,18.60
2019-06-08T22:29:13.136Z,18.60
2019-06-08T22:31:43.636Z,18.60
2019-06-08T22:34:14.035Z,18.60
2019-06-08T22:36:44.430Z,18.60
2019-06-08T22:39:17.458Z,18.60
2019-06-08T22:41:47.836Z,18.60
2019-06-08T22:44:18.390Z,18.60
2019-06-08T22:46:48.852Z,18.50
2019-06-08T22:49:19.311Z,18.50
2019-06-08T22:51:49.751Z,18.50
2019-06-08T22:54:20.057Z,18.50
2019-06-08T22:56:50.481Z,18.50
2019-06-08T22:59:20.902Z,18.40
2019-06-08T23:01:51.355Z,18.40
2019-06-08T23:04:21.835Z,18.40
2019-06-08T23:06:52.107Z,18.40
2019-06-08T23:09:22.449Z,18.40
2019-06-08T23:11:52.813Z,18.40
2019-06-08T23:14:23.127Z,18.40
2019-06-08T23:16:54.549Z,18.40
2019-06-08T23:19:26.389Z,18.40
2019-06-08T23:21:59.236Z,18.40
2019-06-08T23:24:28.868Z,18.30
2019-06-08T23:26:59.993Z,18.30
2019-06-08T23:29:30.607Z,18.20
2019-06-08T23:32:02.794Z,18.10
2019-06-08T23:34:33.091Z,18.10
2019-06-08T23:37:06.639Z,18.00
2019-06-08T23:39:37.400Z,18.00
2019-06-08T23:42:08.038Z,17.90
2019-06-08T23:44:38.704Z,17.90
2019-06-08T23:47:09.071Z,17.80
2019-06-08T23:49:39.491Z,17.80
2019-06-08T23:52:11.703Z,17.70
2019-06-08T23:54:41.915Z,17.70
2019-06-08T23:57:12.479Z,17.60
2019-06-08T23:59:42.871Z,17.60
